Database: COMPET-N - COOP - 3PL - 4PL - CNDOOM

WAD: Doom | Doom 2 | TNT | Plutonia | AV | HR | Scythe | MM | MM2 | Requiem | CE
Category: speed | nmare | max | nm100s | tyson | pacifist | fast | respawn | nomo | misc | built | all
Highscore: ALL | IWAD | PWAD | Country | Continent

< Previous map       Next map >
Remove: wad | map | category | player | allE4M4
MapPlayerTimeDateFilenameCommentsDL
E4M4: Unruly EvilCack_handed 34.002006-12-14u4m4-034.zip - 345
E4M4: Unruly EvilAdam Hegyi35.002000-10-28u4m4-035.zip - 178
E4M4: Unruly EvilAdam Hegyi36.001999-06-24u4m4-036.zip - 197
E4M4: Unruly EvilAnders Johnsen37.001998-08-22u4m4-037.zip - 170
E4M4: Unruly EvilThomas Pilger39.001998-02-05u4m4-039.zip - 156
E4M4: Unruly EvilKai-Uwe Humpert40.001996-05-27u4m4-040.zip - 157
E4M4: Unruly EvilWade Cayton44.001996-04-08u4m4-044.zip - 140
E4M4: Unruly EvilWade Cayton48.001996-02-20u4m4-048.zip - 111
E4M4: Unruly EvilGuillaume Pierson36.002008-11-09n4m4-036.zip - 291
E4M4: Unruly EvilVincent Catalaa37.002000-01-18n4m4-037.zip - 147
E4M4: Unruly EvilAnders Johnsen42.001998-09-13n4m4-042.zip - 191
E4M4: Unruly EvilThomas Pilger43.001998-04-27n4m4-043.zip - 154
E4M4: Unruly EvilIlya Britvich46.001997-11-26n4m4-046.zip - 166
E4M4: Unruly EvilRobert J. Reevy48.001997-10-18n4m4-048.zip - 123
E4M4: Unruly EvilIlya Britvich55.001997-07-21n4m4-055.zip - 147
E4M4: Unruly EvilRobert J. Reevy56.001997-07-06n4m4-056.zip - 107
E4M4: Unruly EvilPeo Sjoblom1:24.001996-10-03n4m4-124.zip - 118
E4M4: Unruly EvilGeorge I. Bell1:46.001996-06-03n4m4-146.zip - 127
E4M4: Unruly EvilJim Leonard1:34.002006-03-18u4m4-134.zip - 341
E4M4: Unruly EvilRadek Pecka1:36.002001-03-25u4m4-136.zip - 148
E4M4: Unruly EvilIan Sutton1:44.001999-09-29u4m4-144.zip - 182
E4M4: Unruly EvilAnders Johnsen1:45.001998-06-26u4m4-145.zip - 197
E4M4: Unruly EvilKai-Uwe Humpert1:48.001998-01-24u4m4-148.zip - 169
E4M4: Unruly EvilYonatan Donner2:20.001996-10-12u4m4-220.zip - 126
E4M4: Unruly EvilWade Cayton2:27.001996-02-20u4m4-227.zip - 132
E4M4: Unruly EvilAndreas Kren3:26.001996-02-04u4m4-326.zip - 118
E4M4: Unruly EvilPaul Falstad4:16.001995-08-23u4m4-416.zip - 167
E4M4: Unruly EvilGuillaume Pierson50.002008-10-16n4s4-050.zip - 310
E4M4: Unruly EvilAdam Hegyi51.001999-06-23n4s4-051.zip - 192
E4M4: Unruly EvilGeorge I. Bell1:46.001996-06-03n4m4-146.zip - 142
E4M4: Unruly EvilJim Leonard2:22.002003-04-09t4m4-222.zip - 297
E4M4: Unruly EvilRadek Pecka2:28.002002-06-11t4m4-228.zip - 161
E4M4: Unruly EvilJim Leonard2:32.002002-05-28t4m4-232.zip - 223
E4M4: Unruly EvilRadek Pecka2:36.002001-03-22t4m4-236.zip - 188
E4M4: Unruly EvilAnders Johnsen2:39.001999-03-12t4m4-239.zip - 160
E4M4: Unruly EvilAndy Kempling3:20.001999-03-09t4m4-320.zip - 161
E4M4: Unruly EvilPatrick Martin3:39.001997-05-31t4m4-339.zip - 121
E4M4: Unruly EvilVincent Catalaa37.002000-01-18p4m4-037.zip - 275
E4M4: Unruly EvilAdam Williamson41.001999-07-20p4m4-041.zip - 190
E4M4: Unruly EvilAndy Badorek45.001998-07-01p4m4-045.zip - 136
E4M4: Unruly EvilRobert J. Reevy1:02.001997-11-01p4m4-102.zip - 131
E4M4: Unruly EvilJim Leonard1:53.002013-03-26f4m4-153.zip - 319
E4M4: Unruly EvilOle Hartvigsen2:28.002000-06-05f4m4-228.zip - 156
E4M4: Unruly EvilThomas Pilger2:32.001998-11-16f4m4-232.zip - 151
E4M4: Unruly EvilDonatas Tamonis2:35.001998-11-14f4m4-235.zip - 117
E4M4: Unruly EvilRadek Pecka1:27.002001-03-26r4m4-127.zip - 263
E4M4: Unruly EvilAnders Johnsen1:36.001998-11-14r4m4-136.zip - 168
E4M4: Unruly EvilThomas Pilger1:37.001998-11-12r4m4-137.zip - 164
E4M4: Unruly EvilThomas Pilger1:45.001998-11-11r4m4-145.zip - 147
E4M4: Unruly EvilArno Slagboom1:56.001998-11-10r4m4-156.zip - 143
E4M4: Unruly EvilDonatas Tamonis2:00.001998-11-09r4m4-200.zip - 123
E4M4: Unruly EvilArno Slagboom2:07.001998-11-09r4m4-207.zip - 99
E4M4: Unruly EvilDonatas Tamonis2:09.001998-10-31r4m4-209.zip - 111
E4M4: Unruly EvilArno Slagboom2:30.001998-11-07r4m4-230.zip - 403
E4M4: Unruly EvilArno Slagboom38.062000-05-03u4403806.zip - 246
Remove: wad | map | category | player | all